createdAt,value
2023-04-24T00:01:13.941Z,3.60
2023-04-24T00:03:42.285Z,3.73
2023-04-24T00:06:10.782Z,3.13
2023-04-24T00:08:39.032Z,3.57
2023-04-24T00:11:08.782Z,3.60
2023-04-24T00:13:37.134Z,3.30
2023-04-24T00:16:06.322Z,3.50
2023-04-24T00:18:34.714Z,3.90
2023-04-24T00:21:03.836Z,4.20
2023-04-24T00:23:32.838Z,3.43
2023-04-24T00:26:01.118Z,3.60
2023-04-24T00:28:30.815Z,4.03
2023-04-24T00:30:59.082Z,4.33
2023-04-24T00:33:27.365Z,3.97
2023-04-24T00:35:55.609Z,3.87
2023-04-24T00:38:24.169Z,3.80
2023-04-24T00:40:52.460Z,3.67
2023-04-24T00:43:20.705Z,3.87
2023-04-24T00:45:50.537Z,4.03
2023-04-24T00:48:19.069Z,3.57
2023-04-24T00:50:47.949Z,4.00
2023-04-24T00:53:16.496Z,3.50
2023-04-24T00:55:44.978Z,3.90
2023-04-24T00:58:14.208Z,3.90
2023-04-24T01:00:42.520Z,4.33
2023-04-24T01:03:13.511Z,3.80
2023-04-24T01:05:41.987Z,3.93
2023-04-24T01:08:11.048Z,4.00
2023-04-24T01:10:40.780Z,4.00
2023-04-24T01:13:10.091Z,3.80
2023-04-24T01:15:38.663Z,4.67
2023-04-24T01:18:07.616Z,4.40
2023-04-24T01:20:40.994Z,4.07
2023-04-24T01:23:11.469Z,4.40
2023-04-24T01:25:40.134Z,4.80
2023-04-24T01:28:08.456Z,4.50
2023-04-24T01:30:36.782Z,4.73
2023-04-24T01:33:05.209Z,3.90
2023-04-24T01:35:34.065Z,4.50
2023-04-24T01:38:02.440Z,4.40
2023-04-24T01:40:32.638Z,4.37
2023-04-24T01:43:01.062Z,4.30
2023-04-24T01:45:30.063Z,4.30
2023-04-24T01:47:58.982Z,4.43
2023-04-24T01:50:27.241Z,4.50
2023-04-24T01:52:55.500Z,3.87
2023-04-24T01:55:23.875Z,4.37
2023-04-24T01:57:56.611Z,4.23
2023-04-24T02:00:25.432Z,4.40
2023-04-24T02:02:55.173Z,3.97
2023-04-24T02:05:23.910Z,3.97
2023-04-24T02:07:52.110Z,4.40
2023-04-24T02:10:20.404Z,3.97
2023-04-24T02:12:48.627Z,4.17
2023-04-24T02:15:18.902Z,4.20
2023-04-24T02:17:47.205Z,3.70
2023-04-24T02:20:15.529Z,3.90
2023-04-24T02:22:43.860Z,4.10
2023-04-24T02:25:12.617Z,4.00
2023-04-24T02:27:40.866Z,4.43
2023-04-24T02:30:10.291Z,3.70
2023-04-24T02:32:40.016Z,4.00
2023-04-24T02:35:09.041Z,3.90
2023-04-24T02:37:37.339Z,3.83
2023-04-24T02:40:06.920Z,4.03
2023-04-24T02:42:35.597Z,4.50
2023-04-24T02:45:03.883Z,3.97
2023-04-24T02:47:32.833Z,3.83
2023-04-24T02:50:03.876Z,3.60
2023-04-24T02:52:32.177Z,3.80
2023-04-24T02:55:00.443Z,3.67
2023-04-24T02:57:28.721Z,4.00
2023-04-24T02:59:56.974Z,3.90
2023-04-24T03:02:25.516Z,3.97
2023-04-24T03:04:54.137Z,4.33
2023-04-24T03:07:24.062Z,3.80
2023-04-24T03:09:52.360Z,4.23
2023-04-24T03:12:20.611Z,4.17
2023-04-24T03:14:48.986Z,4.00
2023-04-24T03:17:17.217Z,4.00
2023-04-24T03:19:45.867Z,4.20
2023-04-24T03:22:15.001Z,4.50
2023-04-24T03:24:45.159Z,4.20
2023-04-24T03:27:16.146Z,4.30
2023-04-24T03:30:05.097Z,3.93
2023-04-24T03:32:48.012Z,4.27
2023-04-24T03:35:22.292Z,4.17
2023-04-24T03:37:50.969Z,4.43
2023-04-24T03:40:43.378Z,3.83
2023-04-24T03:43:35.695Z,3.90
2023-04-24T03:46:05.796Z,3.70
2023-04-24T03:48:38.485Z,3.80
2023-04-24T03:51:08.070Z,4.17
2023-04-24T03:53:38.206Z,4.00
2023-04-24T03:56:08.072Z,4.90
2023-04-24T03:58:37.184Z,4.03
2023-04-24T04:01:06.587Z,4.33
2023-04-24T04:03:37.935Z,4.33
2023-04-24T04:06:07.342Z,4.00
2023-04-24T04:08:35.715Z,4.40
2023-04-24T04:11:05.448Z,4.53
2023-04-24T04:13:35.409Z,4.63
2023-04-24T04:16:04.111Z,4.03
2023-04-24T04:18:32.475Z,4.40
2023-04-24T04:21:02.223Z,4.33
2023-04-24T04:23:31.091Z,4.17
2023-04-24T04:26:11.670Z,4.27
2023-04-24T04:28:54.428Z,4.43
2023-04-24T04:31:24.271Z,4.33
2023-04-24T04:33:52.684Z,4.63
2023-04-24T04:36:21.640Z,4.57
2023-04-24T04:38:55.635Z,4.60
2023-04-24T04:41:43.902Z,3.77
2023-04-24T04:44:15.013Z,4.40
2023-04-24T04:46:44.013Z,4.60
2023-04-24T04:49:24.614Z,3.93
2023-04-24T04:51:54.081Z,4.00
2023-04-24T04:54:26.380Z,4.63
2023-04-24T04:56:55.000Z,4.10
2023-04-24T04:59:25.326Z,4.50
2023-04-24T05:02:00.014Z,4.40
2023-04-24T05:04:28.812Z,4.43
2023-04-24T05:06:57.387Z,4.17
2023-04-24T05:09:28.278Z,4.17
2023-04-24T05:12:00.037Z,4.03
2023-04-24T05:14:35.030Z,4.20
2023-04-24T05:17:03.930Z,4.30
2023-04-24T05:19:36.974Z,4.30
2023-04-24T05:22:07.701Z,4.20
2023-04-24T05:24:40.089Z,4.00
2023-04-24T05:27:16.109Z,4.13
2023-04-24T05:29:45.955Z,4.13
2023-04-24T05:32:15.436Z,4.40
2023-04-24T05:34:43.781Z,4.67
2023-04-24T05:37:12.097Z,4.07
2023-04-24T05:39:42.157Z,4.00
2023-04-24T05:42:10.810Z,3.87
2023-04-24T05:44:39.090Z,4.20
2023-04-24T05:52:13.454Z,4.10
2023-04-24T05:55:25.758Z,3.87
2023-04-24T05:57:52.400Z,4.07
2023-04-24T06:00:44.265Z,4.10
2023-04-24T06:03:32.561Z,3.70
2023-04-24T06:07:00.242Z,3.70
2023-04-24T06:10:25.020Z,4.33
2023-04-24T06:13:19.459Z,4.77
2023-04-24T06:16:34.049Z,4.10
2023-04-24T06:19:25.015Z,4.10
2023-04-24T06:22:27.553Z,3.90
2023-04-24T06:28:24.146Z,4.20
2023-04-24T06:30:57.543Z,3.93
2023-04-24T06:34:27.843Z,3.97
2023-04-24T06:37:34.944Z,4.23
2023-04-24T06:40:39.687Z,3.83
2023-04-24T06:43:37.139Z,3.97
2023-04-24T06:48:56.730Z,4.00
2023-04-24T06:54:13.173Z,3.43
2023-04-24T06:56:41.621Z,3.27
2023-04-24T06:59:11.302Z,3.43
2023-04-24T07:02:53.566Z,3.33
2023-04-24T07:05:22.182Z,3.53
2023-04-24T07:07:51.530Z,3.30
2023-04-24T07:10:21.210Z,3.47
2023-04-24T07:12:49.652Z,3.37
2023-04-24T07:15:19.435Z,3.20
2023-04-24T07:17:48.161Z,3.20
2023-04-24T07:20:16.651Z,2.97
2023-04-24T07:22:45.785Z,3.17
2023-04-24T07:25:14.227Z,3.00
2023-04-24T07:27:42.687Z,3.10
2023-04-24T07:30:12.089Z,3.47
2023-04-24T07:32:41.990Z,3.10
2023-04-24T07:35:11.526Z,3.47
2023-04-24T07:37:40.098Z,3.40
2023-04-24T07:40:09.968Z,3.07
2023-04-24T07:42:39.323Z,3.60
2023-04-24T07:45:08.945Z,2.93
2023-04-24T07:47:38.216Z,2.80
2023-04-24T07:50:08.773Z,3.07
2023-04-24T07:52:37.350Z,2.70
2023-04-24T07:55:06.456Z,3.00
2023-04-24T07:57:34.884Z,2.87
2023-04-24T08:00:03.397Z,2.80
2023-04-24T08:02:40.209Z,2.67
2023-04-24T08:05:13.514Z,2.93
2023-04-24T08:07:43.812Z,2.70
2023-04-24T08:10:14.521Z,2.50
2023-04-24T08:12:44.665Z,3.07
2023-04-24T08:15:13.435Z,2.70
2023-04-24T08:17:42.218Z,2.43
2023-04-24T08:20:14.706Z,2.70
2023-04-24T08:22:43.547Z,2.63
2023-04-24T08:25:12.991Z,2.47
2023-04-24T08:27:41.614Z,2.60
2023-04-24T08:30:10.797Z,2.30
2023-04-24T08:32:39.600Z,2.57
2023-04-24T08:35:10.225Z,2.47
2023-04-24T08:37:40.297Z,2.73
2023-04-24T08:40:14.004Z,2.60
2023-04-24T08:42:44.399Z,2.33
2023-04-24T08:45:14.098Z,2.40
2023-04-24T08:47:45.226Z,2.40
2023-04-24T08:50:14.517Z,2.10
2023-04-24T08:52:44.668Z,2.57
2023-04-24T08:55:13.271Z,2.83
2023-04-24T08:57:41.845Z,2.50
2023-04-24T09:00:12.322Z,2.63
2023-04-24T09:02:45.628Z,2.50
2023-04-24T09:05:16.033Z,2.50
2023-04-24T09:07:49.530Z,2.10
2023-04-24T09:10:19.110Z,2.80
2023-04-24T09:12:48.878Z,2.77
2023-04-24T09:15:19.202Z,2.30
2023-04-24T09:17:48.318Z,2.60
2023-04-24T09:20:17.178Z,2.17
2023-04-24T09:22:47.771Z,2.80
2023-04-24T09:25:16.876Z,2.80
2023-04-24T09:27:47.428Z,2.80
2023-04-24T09:30:16.441Z,3.10
2023-04-24T09:32:45.328Z,2.83
2023-04-24T09:35:15.316Z,2.87
2023-04-24T09:37:44.957Z,3.00
2023-04-24T09:40:16.961Z,2.83
2023-04-24T09:42:54.411Z,3.40
2023-04-24T09:45:26.410Z,3.00
2023-04-24T09:47:56.158Z,3.13
2023-04-24T09:50:25.100Z,2.80
2023-04-24T09:53:00.274Z,2.77
2023-04-24T09:55:30.554Z,2.57
2023-04-24T09:58:01.376Z,3.97
2023-04-24T10:00:32.106Z,2.97
2023-04-24T10:03:02.066Z,2.60
2023-04-24T10:05:32.375Z,2.60
2023-04-24T10:08:05.551Z,2.80
2023-04-24T10:10:39.407Z,2.97
2023-04-24T10:13:09.349Z,3.00
2023-04-24T10:15:38.626Z,2.93
2023-04-24T10:18:08.344Z,2.63
2023-04-24T10:20:38.763Z,2.80
2023-04-24T10:23:07.922Z,2.90
2023-04-24T10:25:38.746Z,3.00
2023-04-24T10:28:09.733Z,3.00
2023-04-24T10:30:39.715Z,2.80
2023-04-24T10:33:10.559Z,3.20
2023-04-24T10:35:42.983Z,2.90
2023-04-24T10:38:15.626Z,3.23
2023-04-24T10:40:45.850Z,3.00
2023-04-24T10:43:19.642Z,3.73
2023-04-24T10:46:04.025Z,3.00
2023-04-24T10:48:33.552Z,3.40
2023-04-24T10:51:02.383Z,3.27
2023-04-24T10:53:32.319Z,2.80
2023-04-24T10:56:06.493Z,3.13
2023-04-24T10:58:39.924Z,2.93
2023-04-24T11:04:05.990Z,2.70
2023-04-24T11:06:37.211Z,3.00
2023-04-24T11:09:07.633Z,3.13
2023-04-24T11:11:41.146Z,3.10
2023-04-24T11:14:10.732Z,3.37
2023-04-24T11:16:45.650Z,3.40
2023-04-24T11:19:24.635Z,3.37
2023-04-24T11:22:00.652Z,3.07
2023-04-24T11:24:31.813Z,3.30
2023-04-24T11:27:07.998Z,2.67
2023-04-24T11:29:43.962Z,3.17
2023-04-24T11:32:20.591Z,2.93
2023-04-24T11:34:51.001Z,3.10
2023-04-24T11:37:19.650Z,2.97
2023-04-24T11:39:48.748Z,2.37
2023-04-24T11:42:18.820Z,2.67
2023-04-24T11:44:48.769Z,2.30
2023-04-24T11:47:17.577Z,2.30
2023-04-24T11:49:46.246Z,2.50
2023-04-24T11:52:18.173Z,2.50
2023-04-24T11:54:51.741Z,2.60
2023-04-24T11:57:23.937Z,2.90
2023-04-24T11:59:52.427Z,2.57
2023-04-24T12:02:26.658Z,2.60
2023-04-24T12:05:01.363Z,2.50
2023-04-24T12:07:30.169Z,2.50
2023-04-24T12:10:00.866Z,2.50
2023-04-24T12:12:31.526Z,2.33
2023-04-24T12:15:01.250Z,2.40
2023-04-24T12:17:32.110Z,2.23
2023-04-24T12:20:02.396Z,2.50
2023-04-24T12:22:44.716Z,2.57
2023-04-24T12:25:13.438Z,2.60
2023-04-24T12:27:43.731Z,2.57
2023-04-24T12:30:15.261Z,2.80
2023-04-24T12:32:45.063Z,3.03
2023-04-24T12:35:13.601Z,2.43
2023-04-24T12:37:47.215Z,2.90
2023-04-24T12:40:17.205Z,2.70
2023-04-24T12:42:48.710Z,2.37
2023-04-24T12:45:18.088Z,2.43
2023-04-24T12:47:47.759Z,2.50
2023-04-24T12:50:17.485Z,2.80
2023-04-24T12:52:46.805Z,2.40
2023-04-24T12:55:15.360Z,2.57
2023-04-24T12:57:43.759Z,2.53
2023-04-24T13:00:14.679Z,3.00
2023-04-24T13:02:43.212Z,2.60
2023-04-24T13:05:12.754Z,2.80
2023-04-24T13:07:41.797Z,2.53
2023-04-24T13:10:11.187Z,2.93
2023-04-24T13:12:39.799Z,2.50
2023-04-24T13:15:09.458Z,2.70
2023-04-24T13:17:39.417Z,3.10
2023-04-24T13:20:08.927Z,2.90
2023-04-24T13:22:38.432Z,3.07
2023-04-24T13:25:08.279Z,2.93
2023-04-24T13:27:36.678Z,2.90
2023-04-24T13:30:07.170Z,2.80
2023-04-24T13:32:36.441Z,2.70
2023-04-24T13:35:07.221Z,2.50
2023-04-24T13:37:35.603Z,2.70
2023-04-24T13:40:07.019Z,2.67
2023-04-24T13:42:35.777Z,3.63
2023-04-24T13:45:17.808Z,2.47
2023-04-24T13:47:54.700Z,2.67
2023-04-24T13:50:25.213Z,5.07
2023-04-24T13:52:54.126Z,2.50
2023-04-24T13:55:22.572Z,2.30
2023-04-24T13:57:53.231Z,2.50
2023-04-24T14:00:22.298Z,2.67
2023-04-24T14:02:51.378Z,2.50
2023-04-24T14:05:20.212Z,2.60
2023-04-24T14:07:49.989Z,2.17
2023-04-24T14:10:18.560Z,2.53
2023-04-24T14:12:47.159Z,2.60
2023-04-24T14:15:16.187Z,2.53
2023-04-24T14:17:44.723Z,2.47
2023-04-24T14:20:14.988Z,3.30
2023-04-24T14:22:43.515Z,2.90
2023-04-24T14:25:13.306Z,2.87
2023-04-24T14:27:41.800Z,2.93
2023-04-24T14:30:11.001Z,2.80
2023-04-24T14:32:40.495Z,3.07
2023-04-24T14:35:09.727Z,2.67
2023-04-24T14:37:38.708Z,2.80
2023-04-24T14:40:21.198Z,2.80
2023-04-24T14:42:59.374Z,2.73
2023-04-24T14:45:28.115Z,3.00
2023-04-24T14:47:57.587Z,3.23
2023-04-24T14:50:28.925Z,3.10
2023-04-24T14:52:58.663Z,3.33
2023-04-24T14:55:27.579Z,2.90
2023-04-24T14:57:56.423Z,3.67
2023-04-24T15:00:26.329Z,3.00
2023-04-24T15:02:56.327Z,2.83
2023-04-24T15:05:26.408Z,2.50
2023-04-24T15:07:55.121Z,2.30
2023-04-24T15:10:27.263Z,2.30
2023-04-24T15:12:55.802Z,2.50
2023-04-24T15:15:26.796Z,2.73
2023-04-24T15:17:55.192Z,2.33
2023-04-24T15:20:25.563Z,2.40
2023-04-24T15:22:54.189Z,2.30
2023-04-24T15:25:22.903Z,2.50
2023-04-24T15:27:53.621Z,2.30
2023-04-24T15:30:37.507Z,2.37
2023-04-24T15:33:07.678Z,2.50
2023-04-24T15:35:36.304Z,2.50
2023-04-24T15:38:06.289Z,2.60
2023-04-24T15:40:34.804Z,2.40
2023-04-24T15:43:03.220Z,2.50
2023-04-24T15:45:34.128Z,2.60
2023-04-24T15:48:03.084Z,2.70
2023-04-24T15:50:32.973Z,2.67
2023-04-24T15:53:03.665Z,2.80
2023-04-24T15:55:32.855Z,2.43
2023-04-24T15:58:01.670Z,2.60
2023-04-24T16:00:34.211Z,2.80
2023-04-24T16:03:17.506Z,2.50
2023-04-24T16:05:47.536Z,2.80
2023-04-24T16:08:15.871Z,2.73
2023-04-24T16:10:44.321Z,2.77
2023-04-24T16:13:22.270Z,2.47
2023-04-24T16:15:52.223Z,2.80
2023-04-24T16:18:21.044Z,2.60
2023-04-24T16:20:52.177Z,3.13
2023-04-24T16:23:20.721Z,2.77
2023-04-24T16:25:49.212Z,2.33
2023-04-24T16:28:17.962Z,2.60
2023-04-24T16:30:46.476Z,2.83
2023-04-24T16:33:16.013Z,2.50
2023-04-24T16:35:45.433Z,2.47
2023-04-24T16:38:15.547Z,2.47
2023-04-24T16:40:44.004Z,2.50
2023-04-24T16:43:12.357Z,2.40
2023-04-24T16:45:40.694Z,2.43
2023-04-24T16:48:11.195Z,2.47
2023-04-24T16:50:39.653Z,3.37
2023-04-24T16:53:07.974Z,3.17
2023-04-24T16:55:37.872Z,3.40
2023-04-24T16:58:06.389Z,2.93
2023-04-24T17:00:35.519Z,3.40
2023-04-24T17:03:04.010Z,3.40
2023-04-24T17:05:32.472Z,3.10
2023-04-24T17:08:01.222Z,2.90
2023-04-24T17:10:30.125Z,3.20
2023-04-24T17:12:59.943Z,3.17
2023-04-24T17:15:28.477Z,3.40
2023-04-24T17:17:57.698Z,3.63
2023-04-24T17:20:27.615Z,3.00
2023-04-24T17:22:58.224Z,3.30
2023-04-24T17:25:26.840Z,3.60
2023-04-24T17:27:55.329Z,3.93
2023-04-24T17:30:25.486Z,4.03
2023-04-24T17:32:53.902Z,3.73
2023-04-24T17:35:22.854Z,4.27
2023-04-24T17:37:51.490Z,4.13
2023-04-24T17:40:20.313Z,3.80
2023-04-24T17:42:49.135Z,6.17
2023-04-24T17:45:17.780Z,4.60
2023-04-24T17:47:47.704Z,4.67
2023-04-24T17:50:16.818Z,4.60
2023-04-24T17:52:45.108Z,4.30
2023-04-24T17:55:13.532Z,3.90
2023-04-24T17:57:42.064Z,3.53
2023-04-24T18:00:32.135Z,3.93
2023-04-24T18:03:02.617Z,4.13
2023-04-24T18:05:36.685Z,3.47
2023-04-24T18:08:06.214Z,3.50
2023-04-24T18:10:58.950Z,4.47
2023-04-24T18:13:28.222Z,4.93
2023-04-24T18:15:59.331Z,4.40
2023-04-24T18:18:39.516Z,4.73
2023-04-24T18:21:08.076Z,4.63
2023-04-24T18:23:36.452Z,4.40
2023-04-24T18:26:07.834Z,4.50
2023-04-24T18:28:36.188Z,4.50
2023-04-24T18:31:04.678Z,3.90
2023-04-24T18:33:34.719Z,3.90
2023-04-24T18:36:15.342Z,3.10
2023-04-24T18:38:44.345Z,2.50
2023-04-24T18:41:14.398Z,2.50
2023-04-24T18:43:42.920Z,2.60
2023-04-24T18:46:11.345Z,2.13
2023-04-24T18:48:44.541Z,2.47
2023-04-24T18:51:13.474Z,2.70
2023-04-24T18:53:41.995Z,2.60
2023-04-24T18:56:30.538Z,2.23
2023-04-24T18:58:59.266Z,2.60
2023-04-24T19:01:27.785Z,2.37
2023-04-24T19:04:03.980Z,2.43
2023-04-24T19:06:40.957Z,2.30
2023-04-24T19:09:09.497Z,2.67
2023-04-24T19:11:41.192Z,2.60
2023-04-24T19:14:09.803Z,2.50
2023-04-24T19:16:38.358Z,2.60
2023-04-24T19:19:10.482Z,2.50
2023-04-24T19:21:39.451Z,2.80
2023-04-24T19:24:09.657Z,2.57
2023-04-24T19:26:38.205Z,2.70
2023-04-24T19:29:06.636Z,6.00
2023-04-24T19:32:01.139Z,9.40
2023-04-24T19:34:34.223Z,6.43
2023-04-24T19:37:03.259Z,5.37
2023-04-24T19:39:32.439Z,6.60
2023-04-24T19:42:04.108Z,9.97
2023-04-24T19:44:37.869Z,5.50
2023-04-24T19:47:06.395Z,5.20
2023-04-24T19:49:39.051Z,4.27
2023-04-24T19:52:07.460Z,3.73
2023-04-24T19:54:35.927Z,3.50
2023-04-24T19:59:47.067Z,3.40
2023-04-24T20:02:16.988Z,3.40
2023-04-24T20:04:47.185Z,3.30
2023-04-24T20:07:15.948Z,3.97
2023-04-24T20:10:15.454Z,4.73
2023-04-24T20:12:43.989Z,7.53
2023-04-24T20:18:05.798Z,3.87
2023-04-24T20:20:38.642Z,3.37
2023-04-24T20:23:22.718Z,3.57
2023-04-24T20:25:57.771Z,3.70
2023-04-24T20:28:27.157Z,3.50
2023-04-24T20:30:58.397Z,3.53
2023-04-24T20:33:28.164Z,3.17
2023-04-24T20:35:57.903Z,3.27
2023-04-24T20:38:26.671Z,3.17
2023-04-24T20:41:01.914Z,3.33
2023-04-24T20:43:30.793Z,3.13
2023-04-24T20:45:59.613Z,3.30
2023-04-24T20:48:28.463Z,3.00
2023-04-24T20:50:58.767Z,3.20
2023-04-24T20:53:27.288Z,3.53
2023-04-24T20:55:55.743Z,3.33
2023-04-24T20:58:38.552Z,3.50
2023-04-24T21:01:07.269Z,3.37
2023-04-24T21:03:36.019Z,3.50
2023-04-24T21:06:06.520Z,3.43
2023-04-24T21:08:36.755Z,3.20
2023-04-24T21:11:05.724Z,3.03
2023-04-24T21:13:34.601Z,3.30
2023-04-24T21:16:03.211Z,4.10
2023-04-24T21:18:32.027Z,3.70
2023-04-24T21:21:00.702Z,3.70
2023-04-24T21:23:30.529Z,3.80
2023-04-24T21:25:59.207Z,3.90
2023-04-24T21:28:27.583Z,4.03
2023-04-24T21:30:56.054Z,3.77
2023-04-24T21:33:24.885Z,4.10
2023-04-24T21:35:53.194Z,3.67
2023-04-24T21:38:24.526Z,4.00
2023-04-24T21:40:54.360Z,3.77
2023-04-24T21:43:28.075Z,3.10
2023-04-24T21:46:05.777Z,3.63
2023-04-24T21:48:34.035Z,3.47
2023-04-24T21:51:02.319Z,3.83
2023-04-24T21:53:30.598Z,4.30
2023-04-24T21:56:00.832Z,3.57
2023-04-24T21:58:29.214Z,3.37
2023-04-24T22:00:57.831Z,3.50
2023-04-24T22:03:26.642Z,3.53
2023-04-24T22:05:55.331Z,4.10
2023-04-24T22:08:23.848Z,3.43
2023-04-24T22:10:53.416Z,3.67
2023-04-24T22:13:23.142Z,3.90
2023-04-24T22:15:51.756Z,3.93
2023-04-24T22:18:20.130Z,4.17
2023-04-24T22:20:48.612Z,4.10
2023-04-24T22:23:17.025Z,3.60
2023-04-24T22:25:45.462Z,3.80
2023-04-24T22:28:13.739Z,4.40
2023-04-24T22:30:43.421Z,3.77
2023-04-24T22:33:11.826Z,3.90
2023-04-24T22:35:40.136Z,4.00
2023-04-24T22:38:08.529Z,4.20
2023-04-24T22:40:36.964Z,4.00
2023-04-24T22:43:05.233Z,4.43
2023-04-24T22:45:33.656Z,4.00
2023-04-24T22:48:03.507Z,4.40
2023-04-24T22:50:32.303Z,4.20
2023-04-24T22:53:00.663Z,3.90
2023-04-24T22:55:29.093Z,3.97
2023-04-24T22:57:58.063Z,4.47
2023-04-24T23:00:26.581Z,4.87
2023-04-24T23:02:55.068Z,4.87
2023-04-24T23:05:25.479Z,4.43
2023-04-24T23:07:53.767Z,4.63
2023-04-24T23:10:22.499Z,4.90
2023-04-24T23:12:51.061Z,4.90
2023-04-24T23:15:19.446Z,4.70
2023-04-24T23:17:47.729Z,4.37
2023-04-24T23:20:16.575Z,4.83
2023-04-24T23:22:46.362Z,4.30
2023-04-24T23:25:14.833Z,4.27
2023-04-24T23:27:43.133Z,4.60
2023-04-24T23:30:11.929Z,4.80
2023-04-24T23:32:40.300Z,5.00
2023-04-24T23:35:09.201Z,4.37
2023-04-24T23:37:38.470Z,5.03
2023-04-24T23:40:10.822Z,4.93
2023-04-24T23:42:39.257Z,4.53
2023-04-24T23:45:10.523Z,4.30
2023-04-24T23:47:38.956Z,4.43
2023-04-24T23:50:08.011Z,4.50
2023-04-24T23:52:36.523Z,5.00
2023-04-24T23:55:05.506Z,4.47
2023-04-24T23:57:35.258Z,5.03
